Time;durP1;ratioP1;P1;durP2;ratioP2;P2;SDS_P1;SDS_P2;PMS_P1;PMS_P2;Temp;Humidity;BMP_temperature;BMP_pressure;BME280_temperature;BME280_humidity;BME280_pressure;Samples;Min_cycle;Max_cycle;Signal;HPM_P1;HPM_P2
2023/07/14 00:02:30;;;;;;;4.18;1.88;;;;;;;-145.68;71.76;73859.59;10418266;28;20554;-68
2023/07/14 00:07:30;;;;;;;4.18;1.92;;;;;;;-145.68;71.96;73863.59;10417871;28;20258;-68
2023/07/14 00:12:31;;;;;;;4.35;1.77;;;;;;;-145.68;73.36;73881.59;10417765;28;20204;-68
2023/07/14 00:17:31;;;;;;;2.67;1.90;;;;;;;-145.68;74.17;73877.59;10417770;28;20192;-68
2023/07/14 00:22:31;;;;;;;6.57;2.20;;;;;;;-145.68;76.18;73901.56;10417238;28;20698;-69
2023/07/14 00:27:32;;;;;;;3.30;2.00;;;;;;;-145.68;77.82;73909.56;10417365;28;20231;-68
2023/07/14 00:32:33;;;;;;;3.15;2.00;;;;;;;-145.68;78.59;73927.56;10399123;28;20220;-68
2023/07/14 00:37:34;;;;;;;3.13;2.08;;;;;;;-145.68;80.29;73947.56;10399751;28;20192;-68
2023/07/14 00:42:35;;;;;;;4.25;2.20;;;;;;;-145.68;83.83;73967.53;10399218;28;20600;-68
2023/07/14 00:47:35;;;;;;;6.50;2.55;;;;;;;-145.68;85.30;73971.53;10415951;28;20299;-68
2023/07/14 00:52:37;;;;;;;4.57;2.15;;;;;;;-145.68;85.84;73977.53;10416820;28;20216;-68
2023/07/14 00:57:38;;;;;;;2.95;1.98;;;;;;;-145.68;86.71;73983.53;10416666;28;20204;-68
2023/07/14 01:02:38;;;;;;;3.60;2.30;;;;;;;-145.68;87.77;73981.53;10416110;28;20227;-68
2023/07/14 01:07:42;;;;;;;4.53;2.50;;;;;;;-145.68;88.31;73993.53;10415246;28;20235;-69
2023/07/14 01:12:47;;;;;;;5.45;2.55;;;;;;;-145.68;88.93;73991.53;10382233;28;20204;-68
2023/07/14 01:17:50;;;;;;;6.18;2.20;;;;;;;-145.68;89.58;73995.53;10416182;28;20271;-68
2023/07/14 01:23:04;;;;;;;3.83;2.30;;;;;;;-145.68;89.97;73989.53;10397796;28;20212;-68
2023/07/14 01:28:07;;;;;;;5.65;2.58;;;;;;;-145.68;88.63;73975.53;10452906;28;20212;-68
2023/07/14 01:33:17;;;;;;;6.03;2.05;;;;;;;-145.68;88.28;73971.53;10456553;28;20219;-68
2023/07/14 01:38:20;;;;;;;6.40;2.88;;;;;;;-145.68;87.28;73965.53;10438573;28;20175;-68
2023/07/14 01:43:21;;;;;;;2.33;2.13;;;;;;;-145.68;87.07;73963.53;10437903;28;20224;-68
2023/07/14 01:48:25;;;;;;;4.25;2.47;;;;;;;-145.68;87.94;73975.53;10456061;28;20187;-68
2023/07/14 01:53:31;;;;;;;4.35;2.40;;;;;;;-145.68;87.36;73965.53;10437912;28;20212;-68
2023/07/14 01:58:34;;;;;;;3.65;2.00;;;;;;;-145.68;86.52;73957.53;10437624;28;20298;-68
2023/07/14 02:03:39;;;;;;;2.72;1.98;;;;;;;-145.68;85.96;73955.53;10421031;28;20214;-68
2023/07/14 02:08:39;;;;;;;3.38;2.47;;;;;;;-145.68;85.23;73947.56;10436814;28;20194;-68
2023/07/14 02:13:40;;;;;;;3.33;2.10;;;;;;;-145.68;85.22;73947.56;10419781;28;20215;-69
2023/07/14 02:18:42;;;;;;;2.83;2.40;;;;;;;-145.68;85.19;73955.53;10454295;28;20265;-68
2023/07/14 02:23:42;;;;;;;3.80;2.30;;;;;;;-145.68;85.87;73963.53;10419820;28;20220;-68
2023/07/14 02:28:43;;;;;;;6.95;2.60;;;;;;;-145.68;86.90;73975.53;10436845;28;20609;-68
2023/07/14 02:33:45;;;;;;;6.20;2.42;;;;;;;-145.68;87.28;73961.53;10454102;28;20207;-68
2023/07/14 02:38:46;;;;;;;3.70;2.47;;;;;;;-145.68;87.23;73965.53;10436099;28;20708;-68
2023/07/14 02:43:54;;;;;;;5.55;2.45;;;;;;;-145.68;86.40;73939.56;10453532;28;20251;-69
2023/07/14 02:48:54;;;;;;;3.08;2.20;;;;;;;-145.68;86.13;73947.56;10435977;28;20207;-68
2023/07/14 02:53:54;;;;;;;6.78;2.53;;;;;;;-145.68;86.75;73953.53;10453330;28;20293;-68
2023/07/14 02:58:55;;;;;;;5.35;2.97;;;;;;;-145.68;88.18;73961.53;10453151;28;20216;-69
2023/07/14 03:03:56;;;;;;;3.55;2.65;;;;;;;-145.68;87.84;73953.53;10434659;28;20238;-69
2023/07/14 03:08:57;;;;;;;9.63;2.80;;;;;;;-145.68;86.33;73939.56;10453051;28;20241;-68
2023/07/14 03:13:57;;;;;;;5.70;2.60;;;;;;;-145.68;86.13;73949.56;10453366;28;20204;-68
2023/07/14 03:18:58;;;;;;;5.95;2.90;;;;;;;-145.68;86.04;73943.56;10452835;28;20208;-68
2023/07/14 03:23:58;;;;;;;3.22;2.33;;;;;;;-145.68;87.39;73945.56;10452172;28;20207;-68
2023/07/14 03:28:59;;;;;;;5.20;2.90;;;;;;;-145.68;86.78;73939.56;10434749;28;20188;-69
2023/07/14 03:33:59;;;;;;;5.22;2.88;;;;;;;-145.68;87.00;73953.53;10433859;28;20207;-68
2023/07/14 03:39:21;;;;;;;3.42;2.42;;;;;;;-145.68;86.39;73927.56;10434388;28;20223;-68
2023/07/14 03:44:22;;;;;;;4.45;2.42;;;;;;;-145.68;86.01;73925.56;10451700;28;20235;-69
2023/07/14 03:49:22;;;;;;;4.95;2.92;;;;;;;-145.68;85.18;73925.56;10434306;28;20551;-68
2023/07/14 03:54:23;;;;;;;4.47;2.50;;;;;;;-145.68;84.34;73913.56;10434055;28;20253;-69
2023/07/14 03:59:24;;;;;;;4.80;2.80;;;;;;;-145.68;84.42;73899.56;10451881;28;20265;-68
2023/07/14 04:04:24;;;;;;;5.35;2.45;;;;;;;-145.68;84.28;73897.56;10451601;28;20557;-68
2023/07/14 04:09:26;;;;;;;4.80;2.88;;;;;;;-145.68;84.18;73889.56;10451376;28;20548;-69
2023/07/14 04:14:27;;;;;;;6.25;2.90;;;;;;;-145.68;84.23;73883.59;10451710;28;20211;-69
2023/07/14 04:19:27;;;;;;;3.60;2.83;;;;;;;-145.68;83.17;73861.59;10451242;28;20721;-69
2023/07/14 04:24:27;;;;;;;2.97;2.63;;;;;;;-145.68;82.67;73857.59;10451327;28;20309;-69
2023/07/14 04:29:28;;;;;;;3.28;2.70;;;;;;;-145.68;82.74;73859.59;10451250;28;20286;-69
2023/07/14 04:34:29;;;;;;;6.43;3.00;;;;;;;-145.68;82.67;73841.59;10451153;28;20211;-69
2023/07/14 04:39:31;;;;;;;4.53;2.92;;;;;;;-145.68;82.76;73849.59;10451009;28;20231;-69
2023/07/14 04:44:31;;;;;;;4.55;2.20;;;;;;;-145.68;81.97;73835.59;10455769;22;20727;-65
2023/07/14 04:49:31;;;;;;;3.65;2.42;;;;;;;-145.68;81.99;73825.63;10415816;28;20204;-65
2023/07/14 04:54:32;;;;;;;4.90;3.03;;;;;;;-145.68;81.43;73807.63;10416667;28;20593;-64
2023/07/14 04:59:34;;;;;;;4.80;2.90;;;;;;;-145.68;79.78;73787.63;10416659;28;20224;-67
2023/07/14 05:04:38;;;;;;;8.40;2.88;;;;;;;-145.68;79.08;73767.66;10416441;28;20224;-67
2023/07/14 05:09:39;;;;;;;4.60;2.78;;;;;;;-145.68;77.32;73725.66;10416001;28;20189;-67
2023/07/14 05:14:39;;;;;;;9.32;2.72;;;;;;;-145.68;75.34;73681.69;10416235;28;20583;-67
2023/07/14 05:19:39;;;;;;;6.32;2.50;;;;;;;-145.68;72.77;73643.72;10415633;28;20216;-64
2023/07/14 05:24:40;;;;;;;5.18;2.95;;;;;;;-145.68;71.42;73609.72;10415690;28;20220;-65
2023/07/14 05:29:40;;;;;;;4.07;2.80;;;;;;;-145.68;69.55;73587.75;10415387;28;20177;-64
2023/07/14 05:34:41;;;;;;;4.38;2.53;;;;;;;-145.68;67.61;73535.78;10415305;28;20262;-65
2023/07/14 05:39:41;;;;;;;2.92;2.22;;;;;;;-145.68;67.25;73515.78;10414726;28;20239;-65
2023/07/14 05:44:42;;;;;;;6.60;2.80;;;;;;;-145.68;65.02;73455.81;10414616;28;20297;-67
2023/07/14 05:49:42;;;;;;;4.22;2.40;;;;;;;-145.68;61.79;73367.88;10414890;28;20650;-65
2023/07/14 05:54:43;;;;;;;6.32;2.40;;;;;;;-145.68;59.22;73293.94;10413975;28;20211;-66
2023/07/14 05:59:43;;;;;;;5.70;2.35;;;;;;;-145.68;56.35;73239.97;10415167;28;20279;-66
2023/07/14 06:04:45;;;;;;;4.20;2.60;;;;;;;-145.68;55.42;73190.00;10413699;28;20214;-66
2023/07/14 06:09:46;;;;;;;4.47;1.83;;;;;;;-145.68;54.58;73142.03;10413997;28;20180;-67
2023/07/14 06:14:46;;;;;;;2.75;2.20;;;;;;;-145.68;52.60;73072.06;10413669;28;20234;-66
2023/07/14 06:19:46;;;;;;;4.85;2.03;;;;;;;-145.68;51.99;72998.13;10413204;28;20224;-66
2023/07/14 06:24:48;;;;;;;5.15;2.30;;;;;;;-145.68;51.67;72940.16;10413476;28;20220;-67
2023/07/14 06:29:49;;;;;;;6.15;2.03;;;;;;;-145.68;47.84;72898.19;10412730;28;20189;-66
2023/07/14 06:34:49;;;;;;;4.10;1.58;;;;;;;-145.68;44.79;72748.31;10409468;28;20216;-67
2023/07/14 06:39:50;;;;;;;5.93;1.80;;;;;;;-145.68;42.63;72578.47;10408265;28;20220;-67
2023/07/14 06:44:50;;;;;;;2.35;1.48;;;;;;;-145.68;40.55;72458.56;10410060;28;20309;-67
2023/07/14 06:49:51;;;;;;;5.60;1.50;;;;;;;-145.68;39.69;72374.63;10411012;28;20603;-67
2023/07/14 06:54:52;;;;;;;4.88;1.60;;;;;;;-145.68;40.22;72448.56;10409154;28;20216;-65
2023/07/14 06:59:53;;;;;;;5.20;1.75;;;;;;;-145.68;41.92;72560.47;10406881;28;20215;-65
2023/07/14 07:04:53;;;;;;;3.88;1.60;;;;;;;-145.68;42.09;72566.47;10403903;28;20659;-66
2023/07/14 07:09:55;;;;;;;2.83;1.85;;;;;;;-145.68;39.36;72346.66;10407060;28;20192;-65
2023/07/14 07:14:55;;;;;;;3.05;1.33;;;;;;;-145.68;37.85;72330.66;10410098;28;20213;-64
2023/07/14 07:19:55;;;;;;;3.35;1.60;;;;;;;-145.68;37.53;72296.69;10409943;28;20220;-65
2023/07/14 07:24:56;;;;;;;3.03;1.48;;;;;;;-145.68;36.95;72310.69;10409960;28;20248;-65
2023/07/14 07:29:56;;;;;;;5.15;1.48;;;;;;;-145.68;35.65;72112.88;10409542;28;20181;-66
2023/07/14 07:35:00;;;;;;;3.22;1.60;;;;;;;-145.68;35.81;72150.84;10408518;28;20221;-66
2023/07/14 07:40:02;;;;;;;2.30;1.27;;;;;;;-145.68;36.14;72198.78;10413940;28;20303;-65
2023/07/14 07:45:03;;;;;;;4.93;1.70;;;;;;;-145.68;36.40;72218.78;10409463;28;20256;-66
2023/07/14 07:50:04;;;;;;;2.30;1.60;;;;;;;-145.68;36.34;72184.81;10409534;28;20217;-64
2023/07/14 07:55:05;;;;;;;7.15;2.08;;;;;;;-145.68;37.78;72300.69;10409758;28;20216;-65
2023/07/14 08:00:07;;;;;;;3.47;1.70;;;;;;;-145.68;37.03;72166.81;10409402;28;20228;-65
2023/07/14 08:05:13;;;;;;;3.40;1.33;;;;;;;-145.68;35.75;72158.84;10408712;28;20224;-66
2023/07/14 08:10:14;;;;;;;2.33;1.20;;;;;;;-145.68;35.69;72216.78;10408235;28;20189;-64
2023/07/14 08:15:14;;;;;;;2.60;1.60;;;;;;;-145.68;36.78;72334.66;10408705;28;20223;-65
2023/07/14 08:20:15;;;;;;;4.50;1.60;;;;;;;-145.68;37.74;72386.63;10415858;28;20238;-65
2023/07/14 08:25:15;;;;;;;4.53;2.10;;;;;;;-145.68;38.46;72460.56;10413796;28;20216;-69
2023/07/14 08:30:15;;;;;;;3.90;1.38;;;;;;;-145.68;38.62;72452.56;10411867;28;20192;-65
2023/07/14 08:35:17;;;;;;;4.28;1.50;;;;;;;-145.68;35.63;72230.75;10412327;28;20215;-65
2023/07/14 08:40:22;;;;;;;5.53;1.48;;;;;;;-145.68;34.80;72064.91;10412667;28;20212;-65
2023/07/14 08:45:58;;;;;;;2.83;1.40;;;;;;;-145.68;32.44;72022.97;10414157;28;20252;-65
2023/07/14 08:51:11;;;;;;;3.40;1.40;;;;;;;-145.68;31.97;71955.03;10416114;28;20181;-65
2023/07/14 08:56:12;;;;;;;3.55;1.40;;;;;;;-145.68;33.75;72104.88;10414582;28;20205;-66
2023/07/14 09:01:25;;;;;;;4.07;1.60;;;;;;;-145.68;32.78;72098.88;10414951;28;20216;-65
2023/07/14 09:06:33;;;;;;;2.58;1.40;;;;;;;-145.68;36.24;72520.50;10413706;28;20220;-66
2023/07/14 09:12:09;;;;;;;2.65;1.25;;;;;;;-145.68;36.08;72372.63;10413613;28;20706;-66
2023/07/14 09:17:18;;;;;;;2.67;1.20;;;;;;;-145.68;34.93;72220.78;10377470;28;20237;-65
2023/07/14 09:22:26;;;;;;;1.73;1.20;;;;;;;-145.68;33.21;72068.91;10413137;28;20639;-65
2023/07/14 09:27:28;;;;;;;5.65;1.48;;;;;;;-145.68;33.87;72128.84;10413681;28;20192;-65
2023/07/14 09:32:37;;;;;;;1.85;1.27;;;;;;;-145.68;36.05;72222.78;10413999;28;20532;-65
2023/07/14 09:37:51;;;;;;;2.63;1.58;;;;;;;-145.68;36.85;72274.72;10412192;28;20225;-66
2023/07/14 09:42:54;;;;;;;2.40;1.42;;;;;;;-145.68;37.18;72292.72;10408994;28;20229;-65
2023/07/14 09:48:05;;;;;;;3.20;1.40;;;;;;;-145.68;36.08;72282.72;10410930;28;20188;-65
2023/07/14 09:53:07;;;;;;;5.78;1.60;;;;;;;-145.68;37.10;72282.72;10413485;28;20706;-66
2023/07/14 09:58:12;;;;;;;5.40;1.67;;;;;;;-145.68;35.83;72204.78;10413263;28;20221;-65
2023/07/14 10:03:16;;;;;;;8.82;3.95;;;;;;;-145.68;35.94;72172.81;10411275;28;20223;-66
2023/07/14 10:08:24;;;;;;;2.38;1.45;;;;;;;-145.68;35.46;72092.91;10412794;28;20674;-65
2023/07/14 10:13:27;;;;;;;5.82;1.60;;;;;;;-145.68;34.93;72124.88;10412629;28;20213;-65
2023/07/14 10:18:28;;;;;;;2.90;1.50;;;;;;;-145.68;34.21;71989.00;10409499;28;20324;-67
2023/07/14 10:23:28;;;;;;;2.25;1.45;;;;;;;-145.68;33.94;72028.94;10411438;28;20265;-66
2023/07/14 10:28:29;;;;;;;4.30;1.88;;;;;;;-145.68;34.62;72060.94;10411431;28;20247;-66
2023/07/14 10:33:33;;;;;;;3.03;1.15;;;;;;;-145.68;32.62;71855.13;10410177;28;20795;-66
2023/07/14 10:38:42;;;;;;;3.13;1.23;;;;;;;-145.68;33.03;71735.25;10411348;28;20687;-66
2023/07/14 10:43:48;;;;;;;2.20;1.42;;;;;;;-145.68;33.27;71731.25;10408917;28;20236;-66
2023/07/14 10:48:55;;;;;;;5.10;1.45;;;;;;;-145.68;31.83;71685.31;10407296;28;20549;-64
2023/07/14 10:54:01;;;;;;;5.43;1.40;;;;;;;-145.68;31.20;71605.38;10409088;28;20731;-62
2023/07/14 10:59:09;;;;;;;2.17;1.63;;;;;;;-145.68;31.42;71739.25;10410034;28;20208;-64
2023/07/14 11:04:22;;;;;;;3.75;1.70;;;;;;;-145.68;31.25;71781.19;10408570;28;20256;-63
2023/07/14 11:09:22;;;;;;;2.00;1.40;;;;;;;-145.68;29.85;71589.41;10410417;28;20213;-64
2023/07/14 11:14:48;;;;;;;2.78;1.50;;;;;;;-145.68;33.57;71969.00;10409327;28;20244;-64
2023/07/14 11:19:59;;;;;;;4.85;1.58;;;;;;;-145.68;31.42;71749.22;10408442;28;20286;-64
2023/07/14 11:25:05;;;;;;;4.78;1.70;;;;;;;-145.68;32.10;71931.06;10408559;28;20209;-62
2023/07/14 11:30:12;;;;;;;1.85;1.45;;;;;;;-145.68;31.70;71665.31;10407582;28;20219;-63
2023/07/14 11:35:24;;;;;;;3.03;1.45;;;;;;;-145.68;29.41;71485.53;10408898;28;20220;-63
2023/07/14 11:40:25;;;;;;;4.55;1.77;;;;;;;-145.68;30.68;71733.25;10408474;28;20703;-65
2023/07/14 11:45:32;;;;;;;2.85;1.50;;;;;;;-145.68;32.31;71791.19;10407064;28;20235;-65
2023/07/14 11:50:35;;;;;;;5.07;1.83;;;;;;;-145.68;30.03;71665.31;10406228;28;20667;-65
2023/07/14 11:55:40;;;;;;;2.63;1.70;;;;;;;-145.68;30.84;71625.38;10417851;28;20266;-62
2023/07/14 12:00:45;;;;;;;3.92;1.80;;;;;;;-145.68;28.96;71409.59;10416186;28;20312;-63
2023/07/14 12:06:11;;;;;;;2.55;1.70;;;;;;;-145.68;27.81;71353.66;10416928;28;20204;-62
2023/07/14 12:11:28;;;;;;;3.05;1.80;;;;;;;-145.68;28.97;71545.44;10413366;28;20215;-62
2023/07/14 12:16:46;;;;;;;3.20;2.08;;;;;;;-145.68;32.31;72082.91;10416688;28;20205;-64
2023/07/14 12:21:57;;;;;;;5.15;1.98;;;;;;;-145.68;33.57;72138.84;10416436;28;20192;-64
2023/07/14 12:27:20;;;;;;;3.10;2.35;;;;;;;-145.68;30.78;71873.09;10415081;28;20218;-63
2023/07/14 12:32:23;;;;;;;5.97;2.70;;;;;;;-145.68;31.10;71877.09;10416168;28;20690;-63
2023/07/14 12:37:23;;;;;;;3.55;2.50;;;;;;;-145.68;30.93;71887.09;10416189;28;20213;-62
2023/07/14 12:42:24;;;;;;;5.03;2.95;;;;;;;-145.68;32.28;72096.88;10415745;28;20199;-63
2023/07/14 12:47:25;;;;;;;3.42;2.20;;;;;;;-145.68;31.18;72048.94;10415715;28;20651;-64
2023/07/14 12:52:30;;;;;;;6.15;2.85;;;;;;;-145.68;30.97;71929.06;10414664;28;20195;-64
2023/07/14 12:57:32;;;;;;;4.32;2.95;;;;;;;-145.68;30.12;71809.16;10412274;28;20229;-63
2023/07/14 13:02:32;;;;;;;9.63;3.28;;;;;;;-145.68;28.65;71505.50;10414090;28;20213;-63
2023/07/14 13:07:32;;;;;;;4.30;3.03;;;;;;;-145.68;30.08;71853.13;10415141;28;20196;-64
2023/07/14 13:12:33;;;;;;;3.38;2.70;;;;;;;-145.68;29.54;71723.25;10414623;28;20212;-63
2023/07/14 13:17:33;;;;;;;7.53;2.85;;;;;;;-145.68;30.80;71927.06;10414883;28;20582;-63
2023/07/14 13:22:36;;;;;;;5.25;2.63;;;;;;;-145.68;28.13;71417.59;10412939;28;20223;-64
2023/07/14 13:27:38;;;;;;;5.97;3.00;;;;;;;-145.68;27.11;71401.63;10413555;28;20243;-63
2023/07/14 13:32:38;;;;;;;6.38;3.50;;;;;;;-145.68;29.06;71645.34;10413795;28;20208;-63
2023/07/14 13:37:40;;;;;;;3.55;2.65;;;;;;;-145.68;27.54;71401.63;10411548;28;20216;-64
2023/07/14 13:42:48;;;;;;;6.30;2.80;;;;;;;-145.68;27.19;71375.66;10412437;28;20694;-64
2023/07/14 13:47:54;;;;;;;3.92;2.47;;;;;;;-145.68;27.85;71635.34;10412671;28;20181;-63
2023/07/14 13:52:55;;;;;;;2.83;2.53;;;;;;;-145.68;25.46;70950.16;10409328;28;20295;-63
2023/07/14 13:57:56;;;;;;;2.78;2.33;;;;;;;-145.68;26.62;71111.94;10411740;28;20226;-63
2023/07/14 14:02:58;;;;;;;4.40;3.03;;;;;;;-145.68;26.41;71213.81;10411724;28;20706;-64
2023/07/14 14:07:59;;;;;;;4.25;2.70;;;;;;;-145.68;28.42;71559.44;10412578;28;20459;-64
2023/07/14 14:13:00;;;;;;;3.60;2.72;;;;;;;-145.68;29.27;71877.09;10412559;28;20579;-64
2023/07/14 14:18:05;;;;;;;3.58;2.70;;;;;;;-145.68;29.15;71727.25;10411806;28;20212;-64
2023/07/14 14:23:06;;;;;;;4.65;2.88;;;;;;;-145.68;29.15;71671.31;10412227;28;20303;-63
2023/07/14 14:28:06;;;;;;;4.28;2.95;;;;;;;-145.68;30.44;71785.19;10410232;28;20669;-64
2023/07/14 14:33:25;;;;;;;4.30;3.40;;;;;;;-145.68;30.65;71901.09;10408941;28;20274;-63
2023/07/14 14:38:30;;;;;;;7.35;2.83;;;;;;;-145.68;29.98;71835.16;10409210;28;20720;-64
2023/07/14 14:43:31;;;;;;;6.05;2.90;;;;;;;-145.68;29.42;71623.38;10407021;28;20780;-63
2023/07/14 14:48:33;;;;;;;6.45;2.90;;;;;;;-145.68;27.06;71347.66;10409880;28;20206;-64
2023/07/14 14:53:36;;;;;;;5.45;2.80;;;;;;;-145.68;27.43;71371.66;10410418;28;20335;-63
2023/07/14 14:58:36;;;;;;;3.20;2.70;;;;;;;-145.68;28.02;71629.38;10410128;28;20600;-63
2023/07/14 15:03:37;;;;;;;4.82;2.50;;;;;;;-145.68;26.85;71245.78;10408975;28;20217;-63
2023/07/14 15:08:38;;;;;;;3.27;2.20;;;;;;;-145.68;25.94;71243.78;10410297;28;20181;-64
2023/07/14 15:13:38;;;;;;;4.28;2.47;;;;;;;-145.68;25.77;71058.00;10408626;28;20814;-65
2023/07/14 15:18:38;;;;;;;6.70;2.55;;;;;;;-145.68;26.49;71367.66;10397832;28;20224;-64
2023/07/14 15:23:39;;;;;;;5.03;2.63;;;;;;;-145.68;27.72;71361.66;10427424;28;20223;-64
2023/07/14 15:28:39;;;;;;;5.85;2.72;;;;;;;-145.68;25.08;71145.91;10377022;28;20189;-63
2023/07/14 15:33:39;;;;;;;4.73;2.80;;;;;;;-145.68;26.92;71361.66;10385279;28;20594;-64
2023/07/14 15:38:40;;;;;;;4.65;2.60;;;;;;;-145.68;27.06;71481.53;10370343;28;20567;-64
2023/07/14 15:43:47;;;;;;;6.50;2.60;;;;;;;-145.68;25.94;71070.00;10369944;28;20249;-64
2023/07/14 15:48:49;;;;;;;3.70;2.17;;;;;;;-145.68;25.14;70964.13;10370398;28;20428;-64
2023/07/14 15:53:54;;;;;;;5.28;2.50;;;;;;;-145.68;25.63;71121.94;10385014;28;20590;-64
2023/07/14 15:58:56;;;;;;;4.68;2.60;;;;;;;-145.68;25.69;71141.91;10370011;28;20224;-65
2023/07/14 16:03:56;;;;;;;3.28;2.20;;;;;;;-145.68;24.37;70790.34;10369714;28;20941;-65
2023/07/14 16:08:56;;;;;;;3.67;2.40;;;;;;;-145.68;24.61;70900.22;10369504;28;20200;-64
2023/07/14 16:13:57;;;;;;;3.00;2.40;;;;;;;-145.68;25.10;70966.13;10399022;28;20216;-64
2023/07/14 16:18:58;;;;;;;5.05;2.38;;;;;;;-145.68;25.67;71181.88;10369348;28;20675;-64
2023/07/14 16:24:01;;;;;;;5.23;2.27;;;;;;;-145.68;25.85;71169.88;10369741;28;20221;-64
2023/07/14 16:29:03;;;;;;;4.85;2.83;;;;;;;-145.68;27.52;71373.66;10369293;28;20582;-64
2023/07/14 16:34:03;;;;;;;3.53;2.47;;;;;;;-145.68;27.79;71421.59;10369131;28;20201;-64
2023/07/14 16:39:08;;;;;;;5.43;2.33;;;;;;;-145.68;28.73;71705.28;10372971;28;20221;-64
2023/07/14 16:44:12;;;;;;;3.47;2.42;;;;;;;-145.68;28.84;71693.28;10374850;28;20261;-63
2023/07/14 16:49:12;;;;;;;6.18;2.42;;;;;;;-145.68;29.79;71781.19;10395165;22;20623;-67
2023/07/14 16:54:15;;;;;;;5.23;2.40;;;;;;;-145.68;29.47;71675.31;10374386;28;20196;-67
2023/07/14 16:59:16;;;;;;;3.75;2.15;;;;;;;-145.68;28.70;71585.41;10357700;28;20586;-68
2023/07/14 17:04:22;;;;;;;3.33;2.67;;;;;;;-145.68;29.26;71551.44;10375631;28;20189;-68
2023/07/14 17:09:24;;;;;;;7.95;2.58;;;;;;;-145.68;30.06;71597.41;10374996;28;20206;-68
2023/07/14 17:14:27;;;;;;;6.80;3.03;;;;;;;-145.68;30.24;71729.25;10375068;28;20197;-67
2023/07/14 17:19:27;;;;;;;4.35;2.40;;;;;;;-145.68;29.69;71613.38;10357272;28;20264;-67
2023/07/14 17:24:28;;;;;;;2.55;2.20;;;;;;;-145.68;30.40;71623.38;10374495;28;20268;-68
2023/07/14 17:29:35;;;;;;;4.38;2.53;;;;;;;-145.68;31.25;71691.28;10374426;28;20687;-68
2023/07/14 17:34:35;;;;;;;4.55;2.75;;;;;;;-145.68;31.86;71719.25;10374014;28;20606;-68
2023/07/14 17:39:37;;;;;;;4.93;2.57;;;;;;;-145.68;32.40;71749.22;10373656;28;20228;-68
2023/07/14 17:44:37;;;;;;;3.05;2.50;;;;;;;-145.68;32.40;71763.22;10373766;28;20943;-68
2023/07/14 17:49:38;;;;;;;5.25;2.53;;;;;;;-145.68;32.21;71729.25;10371984;28;20245;-68
2023/07/14 17:54:41;;;;;;;4.18;2.70;;;;;;;-145.68;32.07;71769.22;10373005;28;20220;-68
2023/07/14 17:59:42;;;;;;;5.97;3.10;;;;;;;-145.68;33.56;71849.13;10372337;28;20237;-68
2023/07/14 18:04:43;;;;;;;6.53;3.60;;;;;;;-145.68;34.15;71899.09;10372710;28;20201;-68
2023/07/14 18:09:44;;;;;;;3.03;2.72;;;;;;;-145.68;34.17;71941.03;10371994;28;20213;-69
2023/07/14 18:14:45;;;;;;;4.55;2.45;;;;;;;-145.68;34.17;71961.03;10371976;28;20189;-69
2023/07/14 18:19:47;;;;;;;4.65;2.88;;;;;;;-145.68;34.71;72008.97;10371824;28;20233;-68
2023/07/14 18:24:47;;;;;;;5.20;2.80;;;;;;;-145.68;36.72;72240.75;10371614;28;20280;-67
2023/07/14 18:29:48;;;;;;;3.75;2.80;;;;;;;-145.68;37.26;72188.81;10371495;28;20292;-68
2023/07/14 18:34:48;;;;;;;9.48;3.35;;;;;;;-145.68;37.96;72208.78;10371225;28;20197;-67
2023/07/14 18:39:50;;;;;;;7.47;3.38;;;;;;;-145.68;39.56;72262.72;10370932;28;20312;-67
2023/07/14 18:44:51;;;;;;;7.47;4.78;;;;;;;-145.68;41.09;72366.63;10371177;28;20225;-67
2023/07/14 18:49:51;;;;;;;12.35;3.88;;;;;;;-145.68;42.98;72498.53;10370491;28;20319;-67
2023/07/14 18:54:52;;;;;;;5.75;3.53;;;;;;;-145.68;44.09;72568.47;10370987;28;20196;-67
2023/07/14 18:59:53;;;;;;;5.05;3.38;;;;;;;-145.68;45.30;72628.41;10370090;28;20328;-67
2023/07/14 19:04:54;;;;;;;6.97;3.42;;;;;;;-145.68;45.72;72660.38;10369819;28;20188;-67
2023/07/14 19:09:55;;;;;;;5.38;3.25;;;;;;;-145.68;46.90;72698.34;10370595;28;20248;-67
2023/07/14 19:14:55;;;;;;;9.32;3.90;;;;;;;-145.68;47.25;72772.31;10369984;28;20236;-67
2023/07/14 19:19:56;;;;;;;7.28;3.50;;;;;;;-145.68;47.98;72764.31;10369886;28;20228;-67
2023/07/14 19:24:56;;;;;;;8.95;3.20;;;;;;;-145.68;48.62;72796.28;10369608;28;20231;-67
2023/07/14 19:29:57;;;;;;;8.02;3.38;;;;;;;-145.68;49.43;72810.28;10369161;28;20208;-67
2023/07/14 19:34:58;;;;;;;6.35;3.05;;;;;;;-145.68;49.21;72842.25;10339436;28;20209;-67
2023/07/14 19:39:58;;;;;;;5.63;2.55;;;;;;;-145.68;50.32;72864.22;10306358;28;20229;-66
2023/07/14 19:44:59;;;;;;;7.22;2.70;;;;;;;-145.68;50.69;72860.22;10307271;28;20671;-67
2023/07/14 19:49:59;;;;;;;4.68;3.03;;;;;;;-145.68;50.13;72876.22;10325869;28;20729;-66
2023/07/14 19:55:00;;;;;;;8.77;2.78;;;;;;;-145.68;49.73;72862.22;10329039;28;20204;-67
2023/07/14 20:00:00;;;;;;;4.35;2.53;;;;;;;-145.68;49.66;72880.22;10328404;28;20225;-66
2023/07/14 20:05:02;;;;;;;4.55;2.40;;;;;;;-145.68;49.58;72888.22;10311549;28;20220;-66
2023/07/14 20:10:02;;;;;;;6.05;2.50;;;;;;;-145.68;49.57;72894.22;10304657;28;20222;-67
2023/07/14 20:15:03;;;;;;;5.05;2.55;;;;;;;-145.68;49.73;72900.19;10313450;28;20202;-67
2023/07/14 20:20:04;;;;;;;4.28;3.03;;;;;;;-145.68;50.08;72926.19;10313264;28;20229;-67
2023/07/14 20:25:05;;;;;;;2.85;2.15;;;;;;;-145.68;50.30;72940.16;10321676;28;20248;-66
2023/07/14 20:30:20;;;;;;;4.18;2.45;;;;;;;-145.68;50.53;72958.16;10335721;28;20650;-67
2023/07/14 20:35:21;;;;;;;4.35;2.65;;;;;;;-145.68;50.88;72978.16;10335774;28;20198;-66
2023/07/14 20:40:22;;;;;;;2.97;2.22;;;;;;;-145.68;51.05;72992.13;10335162;28;20599;-66
2023/07/14 20:45:22;;;;;;;3.42;2.58;;;;;;;-145.68;51.35;73004.13;10335651;28;20190;-66
2023/07/14 20:50:24;;;;;;;3.58;2.58;;;;;;;-145.68;51.56;73014.13;10335090;28;20328;-66
2023/07/14 20:55:27;;;;;;;5.07;2.60;;;;;;;-145.68;51.81;73028.09;10335335;28;20564;-66
2023/07/14 21:00:27;;;;;;;7.85;2.78;;;;;;;-145.68;51.89;73040.09;10334860;28;20226;-67
2023/07/14 21:05:28;;;;;;;4.25;2.30;;;;;;;-145.68;52.42;73058.09;10334427;28;20660;-66
2023/07/14 21:10:28;;;;;;;7.18;2.85;;;;;;;-145.68;52.44;73060.09;10334972;28;20214;-66
2023/07/14 21:15:28;;;;;;;3.15;2.38;;;;;;;-145.68;52.85;73068.06;10334477;28;20194;-67
2023/07/14 21:20:29;;;;;;;6.03;2.47;;;;;;;-145.68;53.00;73082.06;10334383;28;20234;-66
2023/07/14 21:25:29;;;;;;;4.95;2.65;;;;;;;-145.68;53.45;73096.06;10333170;28;20313;-66
2023/07/14 21:30:30;;;;;;;2.88;2.33;;;;;;;-145.68;54.00;73108.06;10333851;28;20213;-66
2023/07/14 21:35:30;;;;;;;4.22;2.55;;;;;;;-145.68;54.49;73118.03;10334068;28;20347;-66
2023/07/14 21:40:31;;;;;;;4.20;2.28;;;;;;;-145.68;54.36;73122.03;10333386;28;20225;-67
2023/07/14 21:45:31;;;;;;;4.90;2.67;;;;;;;-145.68;54.14;73116.03;10333726;28;20194;-67
2023/07/14 21:50:32;;;;;;;4.45;2.40;;;;;;;-145.68;54.10;73124.03;10332912;28;20292;-67
2023/07/14 21:55:32;;;;;;;3.33;2.40;;;;;;;-145.68;54.37;73124.03;10332062;28;20202;-67
2023/07/14 22:00:33;;;;;;;5.20;2.63;;;;;;;-145.68;54.16;73118.03;10315477;28;20232;-67
2023/07/14 22:05:33;;;;;;;3.55;2.45;;;;;;;-145.68;54.04;73116.03;10332479;28;20205;-66
2023/07/14 22:10:33;;;;;;;3.65;2.38;;;;;;;-145.68;53.62;73112.03;10332576;28;20764;-67
2023/07/14 22:15:34;;;;;;;3.60;2.35;;;;;;;-145.68;54.01;73128.03;10332185;28;20671;-67
2023/07/14 22:20:34;;;;;;;3.72;2.45;;;;;;;-145.68;53.76;73124.03;10332113;28;20236;-67
2023/07/14 22:25:34;;;;;;;5.05;2.30;;;;;;;-145.68;53.39;73104.06;10314560;28;20198;-67
2023/07/14 22:30:35;;;;;;;3.20;2.30;;;;;;;-145.68;53.84;73112.03;10331732;28;20210;-67
2023/07/14 22:35:38;;;;;;;3.97;2.15;;;;;;;-145.68;53.59;73110.06;10331374;28;20205;-67
2023/07/14 22:40:38;;;;;;;4.50;2.30;;;;;;;-145.68;54.10;73120.03;10331249;28;20268;-67
2023/07/14 22:45:40;;;;;;;3.88;2.58;;;;;;;-145.68;54.36;73142.03;10331301;28;20197;-67
2023/07/14 22:50:45;;;;;;;4.93;2.50;;;;;;;-145.68;55.05;73160.00;10407693;22;20325;-61
2023/07/14 22:55:47;;;;;;;2.30;1.90;;;;;;;-145.68;54.28;73128.03;10411877;28;20557;-64